Algoma Mariner — CFN5517 — position and weather

sailwx.info

Track history (hours):
 
Tides and Currents Weather Stations Pressure Air Temp Water Temp Dewpoint Dewpoint Depression Visibility Wind Speed Wind Dir Waves Ship Positions

Algoma Mariner

Last reported at 2016-Feb-13 07:27 UTC. Time now 2016-Feb-14 14:41 UTC.
Position N 46°16' W 072°42'.

Length 225 m; draft 10.5 m.

Type: Cargo ship. MMSI: 316014050.

Date/timePositionNaut miles runAvg speedWind from/ knotsBaromVisibWave heightAir tempDewpointWater temp
2016-Feb-13 07:27N 46°16' W 072°42'7 7.9
2016-Feb-13 06:33N 46°19' W 072°33'8 8.3
2016-Feb-13 05:33N 46°24' W 072°24'  
2016-Feb-09 20:27N 46°32' W 072°11'1112.8
2016-Feb-09 19:33N 46°24' W 072°24'1111.0
2016-Feb-09 18:33N 46°17' W 072°36'1110.8
2016-Feb-09 17:33N 46°12' W 072°50'0 0.0
2016-Feb-08 19:05N 46°13' W 072°50'5 9.6
2016-Feb-08 18:33N 46°15' W 072°43'8 8.1
2016-Feb-08 17:33N 46°19' W 072°33'8 7.7
2016-Feb-08 16:33N 46°24' W 072°24'8 8.4
2016-Feb-08 15:33N 46°29' W 072°14'9 8.6
2016-Feb-08 14:27N 46°34' W 072°03'  
2016-Feb-05 03:33N 46°25' W 072°23'1211.5
2016-Feb-05 02:33N 46°17' W 072°36'5 0.2
2016-Feb-04 02:12N 46°16' W 072°42'6 8.9
2016-Feb-04 01:33N 46°18' W 072°34'7 6.6
2016-Feb-04 00:33N 46°23' W 072°28'9 8.5
2016-Feb-03 23:33N 46°26' W 072°17'10 9.0
2016-Feb-03 22:27N 46°34' W 072°07'  
Track history (hours):
 
Tides and Currents Weather Stations Pressure Air Temp Water Temp Dewpoint Dewpoint Depression Visibility Wind Speed Wind Dir Waves Ship Positions

Algoma Mariner

Last reported at 2016-Feb-13 07:27 UTC. Time now 2016-Feb-14 14:41 UTC.
Position N 46°16' W 072°42'.

Length 225 m; draft 10.5 m.

Type: Cargo ship. MMSI: 316014050.

Date/timePositionNaut miles runAvg speedWind from/ knotsBaromVisibWave heightAir tempDewpointWater temp
2016-Feb-13 07:27N 46°16' W 072°42'7 7.9
2016-Feb-13 06:33N 46°19' W 072°33'8 8.3
2016-Feb-13 05:33N 46°24' W 072°24'  
2016-Feb-09 20:27N 46°32' W 072°11'1112.8
2016-Feb-09 19:33N 46°24' W 072°24'1111.0
2016-Feb-09 18:33N 46°17' W 072°36'1110.8
2016-Feb-09 17:33N 46°12' W 072°50'0 0.0
2016-Feb-08 19:05N 46°13' W 072°50'5 9.6
2016-Feb-08 18:33N 46°15' W 072°43'8 8.1
2016-Feb-08 17:33N 46°19' W 072°33'8 7.7
2016-Feb-08 16:33N 46°24' W 072°24'8 8.4
2016-Feb-08 15:33N 46°29' W 072°14'9 8.6
2016-Feb-08 14:27N 46°34' W 072°03'  
2016-Feb-05 03:33N 46°25' W 072°23'1211.5
2016-Feb-05 02:33N 46°17' W 072°36'5 0.2
2016-Feb-04 02:12N 46°16' W 072°42'6 8.9
2016-Feb-04 01:33N 46°18' W 072°34'7 6.6
2016-Feb-04 00:33N 46°23' W 072°28'9 8.5
2016-Feb-03 23:33N 46°26' W 072°17'10 9.0
2016-Feb-03 22:27N 46°34' W 072°07'  

Dump ship's entire track history